Time;durP1;ratioP1;P1;durP2;ratioP2;P2;SDS_P1;SDS_P2;PMS_P1;PMS_P2;Temp;Humidity;BMP_temperature;BMP_pressure;BME280_temperature;BME280_humidity;BME280_pressure;Samples;Min_cycle;Max_cycle;Signal;HPM_P1;HPM_P2
2022/03/11 00:00:52;;;;;;;;;;;;;;;19.92;27.75;102108.33;103921;1316;74187;-86
2022/03/11 00:03:40;;;;;;;;;;;;;;;19.92;27.70;102107.98;104071;1316;62353;-85
2022/03/11 00:06:13;;;;;;;;;;;;;;;19.93;27.72;102111.52;104148;1309;62044;-80
2022/03/11 00:09:30;;;;;;;;;;;;;;;;;;;;;
2022/03/11 00:12:30;;;;;;;;;;;;;;;19.93;27.66;102112.79;104502;1309;76724;-84
2022/03/11 00:15:01;;;;;;;;;;;;;;;19.93;27.64;102115.80;104381;1312;62068;-87
2022/03/11 00:17:47;;;;;;;;;;;;;;;19.93;27.65;102119.56;104357;1312;62082;-79
2022/03/11 00:20:42;;;;;;;;;;;;;;;19.94;27.51;102117.39;104270;1312;73874;-82
2022/03/11 00:23:37;;;;;;;;;;;;;;;19.93;27.43;102117.41;104354;1312;75518;-85
2022/03/11 00:26:24;;;;;;;;;;;;;;;19.93;27.60;102117.95;104212;1312;61982;-82
2022/03/11 00:29:10;;;;;;;;;;;;;;;;;;;;;
2022/03/11 00:31:55;;;;;;;;;;;;;;;19.93;27.48;102120.27;104320;1312;72675;-82
2022/03/11 00:34:54;;;;;;;;;;;;;;;19.93;27.31;102122.95;104327;1312;76499;-81
2022/03/11 00:37:29;;;;;;;;;;;;;;;19.93;27.49;102120.63;104109;1318;61541;-84
2022/03/11 00:40:13;;;;;;;;;;;;;;;19.93;27.35;102118.30;104143;1318;62690;-84
2022/03/11 00:43:21;;;;;;;;;;;;;;;19.93;27.42;102119.75;103852;1318;72808;-82
2022/03/11 00:46:12;;;;;;;;;;;;;;;19.93;27.38;102117.05;104077;1318;75763;-83
2022/03/11 00:49:06;;;;;;;;;;;;;;;19.94;27.42;102119.36;103156;1324;61993;-83
2022/03/11 00:51:42;;;;;;;;;;;;;;;19.94;27.36;102121.31;103112;1324;62000;-79
2022/03/11 00:54:38;;;;;;;;;;;;;;;19.94;27.34;102121.14;103548;1321;73160;-83
2022/03/11 00:57:29;;;;;;;;;;;;;;;19.94;27.36;102121.85;103136;1324;76843;-83
2022/03/11 01:00:13;;;;;;;;;;;;;;;19.95;27.37;102131.13;102478;1332;61913;-84
2022/03/11 01:02:50;;;;;;;;;;;;;;;19.95;27.35;102132.73;102571;1330;62046;-85
2022/03/11 01:05:22;;;;;;;;;;;;;;;19.94;27.26;102127.02;102508;1330;72946;-88
2022/03/11 01:08:02;;;;;;;;;;;;;;;19.94;27.37;102125.05;102428;1332;74699;-82
2022/03/11 01:11:11;;;;;;;;;;;;;;;;;;;;;
2022/03/11 01:13:57;;;;;;;;;;;;;;;19.95;27.32;102114.33;102151;1332;62212;-85
2022/03/11 01:17:21;;;;;;;;;;;;;;;19.94;27.31;102112.55;102462;1332;72745;-84
2022/03/11 01:19:46;;;;;;;;;;;;;;;19.95;27.30;102112.52;102338;1332;75557;-87
2022/03/11 01:22:35;;;;;;;;;;;;;;;19.95;27.29;102110.92;102455;1332;62110;-84
2022/03/11 01:25:05;;;;;;;;;;;;;;;19.95;27.19;102105.20;102353;1332;62017;-87
2022/03/11 01:28:13;;;;;;;;;;;;;;;19.95;27.28;102106.11;102022;1338;71542;-85
2022/03/11 01:30:50;;;;;;;;;;;;;;;19.96;27.20;102105.34;102169;1332;76142;-84
2022/03/11 01:33:42;;;;;;;;;;;;;;;19.95;27.19;102106.98;102551;1332;62031;-83
2022/03/11 01:36:39;;;;;;;;;;;;;;;;;;;;;
2022/03/11 01:40:09;;;;;;;;;;;;;;;19.96;27.23;102107.84;102546;1329;73937;-83
2022/03/11 01:42:18;;;;;;;;;;;;;;;19.96;27.19;102106.60;102519;1332;75449;-82
2022/03/11 01:45:15;;;;;;;;;;;;;;;19.96;27.20;102108.20;102574;1329;61913;-84
2022/03/11 01:48:16;;;;;;;;;;;;;;;;;;;;;
2022/03/11 01:50:59;;;;;;;;;;;;;;;19.96;27.21;102113.73;103292;1322;72927;-85
2022/03/11 01:53:46;;;;;;;;;;;;;;;19.96;27.25;102113.52;103321;1322;76809;-85
2022/03/11 01:56:40;;;;;;;;;;;;;;;19.96;27.15;102114.44;103219;1323;62103;-85
2022/03/11 01:59:30;;;;;;;;;;;;;;;;;;;;;
2022/03/11 02:02:24;;;;;;;;;;;;;;;19.96;27.17;102112.65;103024;1323;73900;-80
2022/03/11 02:05:20;;;;;;;;;;;;;;;19.96;27.18;102116.76;103542;1314;74391;-79
2022/03/11 02:08:06;;;;;;;;;;;;;;;19.96;27.00;102114.78;104215;1315;62195;-83
2022/03/11 02:10:52;;;;;;;;;;;;;;;19.97;27.26;102116.89;104210;1314;61954;-83
2022/03/11 02:13:34;;;;;;;;;;;;;;;19.97;27.13;102114.40;104289;1314;73890;-82
2022/03/11 02:16:30;;;;;;;;;;;;;;;19.96;27.09;102113.18;104377;1306;75540;-83
2022/03/11 02:19:15;;;;;;;;;;;;;;;19.96;27.22;102110.86;104236;1314;62117;-82
2022/03/11 02:22:08;;;;;;;;;;;;;;;19.96;27.00;102117.29;104298;1313;61972;-84
2022/03/11 02:24:43;;;;;;;;;;;;;;;19.97;27.16;102117.25;104247;1313;72857;-82
2022/03/11 02:27:34;;;;;;;;;;;;;;;19.97;27.13;102121.73;104309;1313;76557;-82
2022/03/11 02:30:43;;;;;;;;;;;;;;;19.96;27.14;102119.27;104310;1313;62156;-86
2022/03/11 02:33:37;;;;;;;;;;;;;;;19.96;27.07;102123.39;104315;1313;62075;-83
2022/03/11 02:36:14;;;;;;;;;;;;;;;19.96;27.17;102123.36;104290;1313;72784;-84
2022/03/11 02:38:59;;;;;;;;;;;;;;;19.97;27.06;102121.92;104220;1315;75851;-82
2022/03/11 02:41:42;;;;;;;;;;;;;;;19.97;27.13;102122.26;104203;1315;61944;-84
2022/03/11 02:44:31;;;;;;;;;;;;;;;19.97;26.94;102122.61;104294;1313;62006;-85
2022/03/11 02:47:08;;;;;;;;;;;;;;;19.97;26.92;102121.73;104231;1315;72794;-87
2022/03/11 02:49:42;;;;;;;;;;;;;;;19.97;27.10;102123.00;104299;1313;75629;-81
2022/03/11 02:52:20;;;;;;;;;;;;;;;19.97;27.04;102124.77;104331;1312;62010;-82
2022/03/11 02:55:16;;;;;;;;;;;;;;;19.97;26.96;102124.59;104310;1313;61576;-83
2022/03/11 02:57:52;;;;;;;;;;;;;;;19.97;27.02;102124.93;104693;1306;73888;-85
2022/03/11 03:00:37;;;;;;;;;;;;;;;19.96;26.75;102120.68;104520;1308;75349;-87
2022/03/11 03:03:24;;;;;;;;;;;;;;;;;;;;;
2022/03/11 03:06:19;;;;;;;;;;;;;;;;;;;;;
2022/03/11 03:08:57;;;;;;;;;;;;;;;;;;;;;
2022/03/11 03:11:34;;;;;;;;;;;;;;;;;;;;;
2022/03/11 03:14:20;;;;;;;;;;;;;;;19.97;26.82;102124.77;104663;1309;61970;-84
2022/03/11 03:16:56;;;;;;;;;;;;;;;19.97;26.82;102123.50;104557;1309;61936;-84
2022/03/11 03:19:52;;;;;;;;;;;;;;;19.97;26.99;102122.42;104588;1308;71520;-82
2022/03/11 03:22:47;;;;;;;;;;;;;;;19.97;26.82;102125.27;104558;1309;76760;-84
2022/03/11 03:25:35;;;;;;;;;;;;;;;19.97;26.91;102124.20;104562;1309;61982;-84
2022/03/11 03:28:23;;;;;;;;;;;;;;;19.97;26.92;102124.55;104543;1308;62597;-81
2022/03/11 03:31:10;;;;;;;;;;;;;;;19.98;26.90;102124.73;104520;1309;72998;-83
2022/03/11 03:33:52;;;;;;;;;;;;;;;19.98;26.75;102125.98;104520;1309;74770;-85
2022/03/11 03:36:58;;;;;;;;;;;;;;;;;;;;;
2022/03/11 03:39:46;;;;;;;;;;;;;;;19.98;26.82;102123.30;104692;1307;62023;-83
2022/03/11 03:42:30;;;;;;;;;;;;;;;19.98;26.80;102119.90;104663;1307;71749;-84
2022/03/11 03:45:05;;;;;;;;;;;;;;;19.98;26.78;102119.70;104622;1309;75702;-86
2022/03/11 03:47:53;;;;;;;;;;;;;;;19.99;26.88;102119.51;104541;1309;62522;-83
2022/03/11 03:50:29;;;;;;;;;;;;;;;19.99;26.76;102118.63;104249;1315;62098;-83
2022/03/11 03:53:18;;;;;;;;;;;;;;;19.99;26.95;102118.27;104302;1313;73800;-84
2022/03/11 03:56:17;;;;;;;;;;;;;;;19.98;26.98;102119.68;103762;1319;75638;-81
2022/03/11 03:59:04;;;;;;;;;;;;;;;19.98;26.94;102117.73;103788;1319;62025;-84
2022/03/11 04:01:54;;;;;;;;;;;;;;;19.99;26.89;102114.33;103783;1319;62131;-85
2022/03/11 04:04:38;;;;;;;;;;;;;;;19.99;26.93;102114.14;103816;1320;73814;-83
2022/03/11 04:07:37;;;;;;;;;;;;;;;19.99;26.87;102115.55;103732;1319;76585;-82
2022/03/11 04:10:08;;;;;;;;;;;;;;;19.98;26.81;102115.22;103714;1319;62156;-82
2022/03/11 04:13:03;;;;;;;;;;;;;;;19.99;26.87;102118.95;103795;1320;62066;-84
2022/03/11 04:15:40;;;;;;;;;;;;;;;19.99;26.75;102116.64;103724;1319;74250;-89
2022/03/11 04:18:21;;;;;;;;;;;;;;;19.99;26.92;102122.33;103631;1320;75576;-82
2022/03/11 04:20:54;;;;;;;;;;;;;;;19.99;26.77;102122.89;103438;1320;62221;-85
2022/03/11 04:23:39;;;;;;;;;;;;;;;19.99;27.00;102128.79;103785;1321;62127;-89
2022/03/11 04:26:43;;;;;;;;;;;;;;;;;;;;;
2022/03/11 04:29:23;;;;;;;;;;;;;;;19.99;26.86;102132.70;104283;1315;75749;-87
2022/03/11 04:32:06;;;;;;;;;;;;;;;19.99;26.89;102133.06;104145;1314;62150;-86
2022/03/11 04:34:47;;;;;;;;;;;;;;;20.00;26.79;102134.80;104492;1308;62088;-85
2022/03/11 04:37:41;;;;;;;;;;;;;;;20.00;26.80;102133.91;104545;1309;72727;-84
2022/03/11 04:40:28;;;;;;;;;;;;;;;20.01;26.83;102128.89;104301;1314;76385;-79
2022/03/11 04:43:19;;;;;;;;;;;;;;;;;;;;;
2022/03/11 04:45:58;;;;;;;;;;;;;;;;;;;;;
2022/03/11 04:48:53;;;;;;;;;;;;;;;20.02;26.86;102128.46;104250;1313;74041;-81
2022/03/11 04:51:45;;;;;;;;;;;;;;;20.03;26.77;102134.11;103780;1320;76998;-84
2022/03/11 04:54:23;;;;;;;;;;;;;;;20.05;26.98;102135.13;103772;1319;61990;-84
2022/03/11 04:57:00;;;;;;;;;;;;;;;20.06;27.06;102135.98;103659;1321;63237;-82
2022/03/11 04:59:46;;;;;;;;;;;;;;;20.07;27.05;102141.09;103672;1321;73942;-86
2022/03/11 05:03:01;;;;;;;;;;;;;;;20.09;26.97;102143.13;102812;1326;75832;-83
2022/03/11 05:05:19;;;;;;;;;;;;;;;20.11;27.01;102151.45;102845;1326;62038;-84
2022/03/11 05:08:00;;;;;;;;;;;;;;;20.13;26.89;102152.48;102889;1325;63317;-87
2022/03/11 05:10:36;;;;;;;;;;;;;;;20.14;26.78;102151.84;102934;1325;72684;-85
2022/03/11 05:13:15;;;;;;;;;;;;;;;20.16;26.83;102155.69;102956;1326;75433;-83
2022/03/11 05:15:51;;;;;;;;;;;;;;;;;;;;;
2022/03/11 05:18:36;;;;;;;;;;;;;;;20.19;26.72;102159.48;103298;1318;61998;-86
2022/03/11 05:21:26;;;;;;;;;;;;;;;;;;;;;
2022/03/11 05:24:08;;;;;;;;;;;;;;;20.23;26.59;102165.02;103162;1320;75634;-83
2022/03/11 05:26:56;;;;;;;;;;;;;;;20.25;26.45;102167.08;103199;1320;61998;-83
2022/03/11 05:29:33;;;;;;;;;;;;;;;20.25;26.39;102166.52;103703;1316;62259;-82
2022/03/11 05:32:07;;;;;;;;;;;;;;;20.25;26.45;102174.21;103772;1317;73101;-80
2022/03/11 05:34:55;;;;;;;;;;;;;;;20.24;26.50;102174.81;103918;1314;76459;-81
2022/03/11 05:37:33;;;;;;;;;;;;;;;;;;;;;
2022/03/11 05:39:58;;;;;;;;;;;;;;;20.13;26.53;102171.02;104200;1309;61973;-82
2022/03/11 05:42:53;;;;;;;;;;;;;;;;;;;;;
2022/03/11 05:45:19;;;;;;;;;;;;;;;20.03;26.41;102169.86;104329;1309;76486;-83
2022/03/11 05:47:59;;;;;;;;;;;;;;;19.97;26.18;102168.20;104472;1308;61996;-84
2022/03/11 05:50:25;;;;;;;;;;;;;;;19.88;26.02;102169.12;104235;1308;62136;-81
2022/03/11 05:52:53;;;;;;;;;;;;;;;19.79;26.10;102170.37;104452;1308;72812;-81
2022/03/11 05:55:19;;;;;;;;;;;;;;;19.69;25.98;102173.11;104188;1308;62083;-82
2022/03/11 05:57:45;;;;;;;;;;;;;;;19.58;25.87;102172.16;103799;1308;62099;-81
2022/03/11 06:00:14;;;;;;;;;;;;;;;19.51;25.67;102170.33;103691;1309;62110;-82
2022/03/11 06:02:39;;;;;;;;;;;;;;;19.45;25.61;102172.02;103964;1309;62207;-81
2022/03/11 06:05:14;;;;;;;;;;;;;;;19.41;25.64;102176.45;103988;1309;62133;-80
2022/03/11 06:07:40;;;;;;;;;;;;;;;19.39;25.43;102178.70;103788;1311;64278;-80
2022/03/11 06:10:06;;;;;;;;;;;;;;;19.38;25.43;102176.95;103901;1312;62203;-80
2022/03/11 06:12:34;;;;;;;;;;;;;;;19.41;25.37;102184.35;104490;1311;73042;-81
2022/03/11 06:15:00;;;;;;;;;;;;;;;19.43;25.34;102184.40;104121;1311;62123;-80
2022/03/11 06:17:25;;;;;;;;;;;;;;;19.47;25.23;102183.36;104081;1310;60691;-80
2022/03/11 06:19:51;;;;;;;;;;;;;;;19.50;24.97;102177.86;103916;1311;62260;-79
2022/03/11 06:22:16;;;;;;;;;;;;;;;19.54;24.88;102185.00;104057;1314;62935;-80
2022/03/11 06:25:00;;;;;;;;;;;;;;;;;;;;;
2022/03/11 06:27:26;;;;;;;;;;;;;;;19.64;24.71;102186.92;104483;1311;75811;-83
2022/03/11 06:29:52;;;;;;;;;;;;;;;19.68;24.49;102188.01;104120;1311;62245;-80
2022/03/11 06:32:42;;;;;;;;;;;;;;;19.72;24.55;102185.16;103877;1311;62025;-80
2022/03/11 06:35:08;;;;;;;;;;;;;;;19.74;24.36;102186.64;104070;1313;74297;-81
2022/03/11 06:37:38;;;;;;;;;;;;;;;19.79;24.43;102185.04;104133;1311;75264;-80
2022/03/11 06:40:04;;;;;;;;;;;;;;;19.81;24.45;102183.52;104311;1308;62239;-80
2022/03/11 06:42:33;;;;;;;;;;;;;;;19.84;24.41;102180.36;104114;1309;62291;-80
2022/03/11 06:45:01;;;;;;;;;;;;;;;19.87;24.39;102181.65;104264;1309;73887;-81
2022/03/11 06:47:32;;;;;;;;;;;;;;;19.90;24.37;102179.72;102007;1308;3038677;-82
2022/03/11 06:49:57;;;;;;;;;;;;;;;19.92;24.47;102175.17;104024;1309;62110;-80
2022/03/11 06:52:27;;;;;;;;;;;;;;;19.93;24.38;102175.84;104029;1308;61415;-79
2022/03/11 06:54:53;;;;;;;;;;;;;;;19.93;24.40;102173.15;104252;1309;75338;-81
2022/03/11 06:57:18;;;;;;;;;;;;;;;19.89;24.36;102171.40;104204;1308;62124;-80
2022/03/11 06:59:44;;;;;;;;;;;;;;;19.83;24.39;102168.42;104307;1309;62075;-80
2022/03/11 07:02:13;;;;;;;;;;;;;;;19.76;24.32;102170.84;104311;1309;62002;-80
2022/03/11 07:04:38;;;;;;;;;;;;;;;19.69;24.41;102170.62;104368;1307;62135;-80
2022/03/11 07:07:04;;;;;;;;;;;;;;;19.65;24.35;102161.55;104317;1309;60361;-80
2022/03/11 07:09:29;;;;;;;;;;;;;;;19.59;24.47;102160.33;104214;1308;62122;-80
2022/03/11 07:12:12;;;;;;;;;;;;;;;;;;;;;
2022/03/11 07:14:37;;;;;;;;;;;;;;;19.59;24.35;102156.40;104433;1308;62116;-81
2022/03/11 07:17:03;;;;;;;;;;;;;;;19.64;24.38;102155.87;104029;1309;62067;-79
2022/03/11 07:19:29;;;;;;;;;;;;;;;19.67;24.28;102154.83;104026;1308;62217;-80
2022/03/11 07:21:54;;;;;;;;;;;;;;;19.71;24.22;102153.40;104112;1308;62110;-80
2022/03/11 07:24:20;;;;;;;;;;;;;;;19.74;24.08;102153.60;104028;1308;62083;-80
2022/03/11 07:26:48;;;;;;;;;;;;;;;19.79;23.99;102153.59;104027;1308;62200;-79
2022/03/11 07:29:13;;;;;;;;;;;;;;;19.83;24.06;102149.52;104040;1308;62113;-80
2022/03/11 07:31:45;;;;;;;;;;;;;;;19.86;24.22;102149.94;104219;1309;62064;-80
2022/03/11 07:34:10;;;;;;;;;;;;;;;19.89;24.21;102143.16;104395;1308;62087;-80
2022/03/11 07:36:36;;;;;;;;;;;;;;;19.92;24.25;102145.14;104055;1308;62015;-81
2022/03/11 07:39:03;;;;;;;;;;;;;;;19.96;24.27;102137.70;104222;1309;60646;-80
2022/03/11 07:41:29;;;;;;;;;;;;;;;19.98;24.30;102139.36;104120;1308;62084;-78
2022/03/11 07:43:55;;;;;;;;;;;;;;;19.98;24.11;102135.96;104155;1308;60671;-82
2022/03/11 07:46:23;;;;;;;;;;;;;;;19.97;24.13;102130.65;104281;1308;62147;-81
2022/03/11 07:48:51;;;;;;;;;;;;;;;19.94;24.07;102127.58;104133;1308;62100;-81
2022/03/11 07:51:17;;;;;;;;;;;;;;;19.92;23.98;102125.70;104160;1308;62348;-80
2022/03/11 07:53:45;;;;;;;;;;;;;;;19.87;23.78;102122.86;104094;1308;62224;-84
2022/03/11 07:56:12;;;;;;;;;;;;;;;19.73;23.48;102124.20;104170;1309;72855;-80
2022/03/11 07:58:39;;;;;;;;;;;;;;;19.53;23.51;102122.73;104233;1308;76341;-80
2022/03/11 08:01:07;;;;;;;;;;;;;;;19.42;23.73;102117.67;104296;1309;61878;-81
2022/03/11 08:03:33;;;;;;;;;;;;;;;19.37;23.76;102114.86;104334;1309;60415;-81
2022/03/11 08:05:59;;;;;;;;;;;;;;;19.34;23.87;102117.50;104267;1308;60842;-79
2022/03/11 08:08:24;;;;;;;;;;;;;;;19.32;23.83;102108.10;104327;1309;61365;-80
2022/03/11 08:10:49;;;;;;;;;;;;;;;19.32;23.69;102109.04;104488;1308;62056;-81
2022/03/11 08:13:15;;;;;;;;;;;;;;;19.34;23.67;102106.41;104027;1309;62219;-83
2022/03/11 08:15:40;;;;;;;;;;;;;;;19.40;23.69;102102.42;104196;1309;62156;-81
2022/03/11 08:18:06;;;;;;;;;;;;;;;19.46;23.65;102106.61;104092;1308;60972;-80
2022/03/11 08:20:31;;;;;;;;;;;;;;;19.53;23.76;102099.87;104207;1308;62104;-80
2022/03/11 08:23:07;;;;;;;;;;;;;;;19.62;23.84;102101.66;104149;1309;60932;-80
2022/03/11 08:25:40;;;;;;;;;;;;;;;19.69;23.83;102099.21;104229;1308;61947;-79
2022/03/11 08:28:10;;;;;;;;;;;;;;;19.74;23.79;102096.83;104306;1309;74123;-80
2022/03/11 08:30:36;;;;;;;;;;;;;;;19.78;23.89;102095.95;104200;1308;75476;-82
2022/03/11 08:33:02;;;;;;;;;;;;;;;19.81;23.83;102094.00;104422;1309;62071;-79
2022/03/11 08:35:28;;;;;;;;;;;;;;;19.84;23.90;102093.36;104342;1308;62202;-79
2022/03/11 08:37:53;;;;;;;;;;;;;;;19.86;23.85;102096.85;104128;1308;62127;-79
2022/03/11 08:40:33;;;;;;;;;;;;;;;;;;;;;
2022/03/11 08:42:59;;;;;;;;;;;;;;;19.94;23.90;102099.50;104365;1308;62521;-79
2022/03/11 08:45:25;;;;;;;;;;;;;;;19.99;23.74;102100.19;104239;1308;62786;-81
2022/03/11 08:47:50;;;;;;;;;;;;;;;20.00;23.82;102093.69;104279;1307;62123;-80
2022/03/11 08:50:16;;;;;;;;;;;;;;;20.03;23.76;102088.90;104196;1308;62183;-80
2022/03/11 08:52:42;;;;;;;;;;;;;;;20.04;23.72;102093.67;104103;1309;62142;-81
2022/03/11 08:55:08;;;;;;;;;;;;;;;19.97;23.53;102097.96;103854;1308;62140;-80
2022/03/11 08:57:35;;;;;;;;;;;;;;;19.82;23.45;102092.58;103964;1310;61971;-82
2022/03/11 09:00:04;;;;;;;;;;;;;;;19.72;23.37;102088.33;104360;1309;74027;-80
2022/03/11 09:02:30;;;;;;;;;;;;;;;19.60;23.42;102084.92;104286;1309;76649;-81
2022/03/11 09:04:55;;;;;;;;;;;;;;;19.41;23.38;102085.22;104181;1308;62186;-81
2022/03/11 09:07:23;;;;;;;;;;;;;;;19.36;23.42;102092.08;104001;1308;62199;-80
2022/03/11 09:09:51;;;;;;;;;;;;;;;19.36;23.45;102083.48;104221;1306;62107;-80
2022/03/11 09:12:17;;;;;;;;;;;;;;;19.39;23.64;102084.95;104053;1308;76521;-80
2022/03/11 09:14:47;;;;;;;;;;;;;;;19.43;23.62;102082.98;104163;1306;62084;-80
2022/03/11 09:17:12;;;;;;;;;;;;;;;19.50;23.49;102072.55;104171;1306;60851;-80
2022/03/11 09:19:43;;;;;;;;;;;;;;;19.55;23.58;102074.59;104187;1309;73104;-81
2022/03/11 09:22:11;;;;;;;;;;;;;;;19.62;23.36;102077.71;104004;1309;74836;-81
2022/03/11 09:24:39;;;;;;;;;;;;;;;19.67;23.42;102077.13;104201;1306;62141;-80
2022/03/11 09:27:05;;;;;;;;;;;;;;;19.72;23.41;102084.38;104160;1309;60618;-80
2022/03/11 09:29:31;;;;;;;;;;;;;;;19.76;23.28;102083.13;104042;1308;62153;-80
2022/03/11 09:32:04;;;;;;;;;;;;;;;19.80;23.31;102080.11;104124;1308;76596;-80
2022/03/11 09:34:29;;;;;;;;;;;;;;;19.79;23.37;102075.19;104166;1308;63282;-80
2022/03/11 09:36:59;;;;;;;;;;;;;;;19.77;23.48;102072.72;104120;1309;62075;-81
2022/03/11 09:39:27;;;;;;;;;;;;;;;19.76;23.38;102073.50;104086;1308;72896;-80
2022/03/11 09:41:53;;;;;;;;;;;;;;;19.71;23.40;102065.67;104081;1307;77162;-80
2022/03/11 09:44:21;;;;;;;;;;;;;;;19.68;23.27;102070.29;104219;1306;62175;-80
2022/03/11 09:46:56;;;;;;;;;;;;;;;19.67;23.55;102067.48;104381;1306;61944;-80
2022/03/11 09:49:21;;;;;;;;;;;;;;;19.68;23.67;102062.99;104259;1307;72920;-82
2022/03/11 09:51:47;;;;;;;;;;;;;;;19.67;23.67;102054.98;104291;1309;62603;-82
2022/03/11 09:54:13;;;;;;;;;;;;;;;19.64;23.46;102050.65;104379;1309;62085;-81
2022/03/11 09:56:39;;;;;;;;;;;;;;;19.49;22.84;102054.16;104429;1306;60587;-79
2022/03/11 09:59:07;;;;;;;;;;;;;;;19.31;22.92;102053.38;104300;1308;60406;-82
2022/03/11 10:01:33;;;;;;;;;;;;;;;19.07;22.74;102050.85;104375;1308;62179;-82
2022/03/11 10:03:59;;;;;;;;;;;;;;;18.97;22.87;102054.11;104268;1309;62101;-81
2022/03/11 10:06:43;;;;;;;;;;;;;;;18.97;23.02;102050.89;104081;1308;60709;-82
2022/03/11 10:09:17;;;;;;;;;;;;;;;19.02;22.93;102048.55;105066;1308;72916;-81
2022/03/11 10:11:46;;;;;;;;;;;;;;;19.05;22.96;102043.04;105133;1308;76740;-81
2022/03/11 10:14:12;;;;;;;;;;;;;;;19.09;22.91;102042.16;104350;1308;62191;-81
2022/03/11 10:16:38;;;;;;;;;;;;;;;19.14;22.98;102035.35;104241;1306;62025;-78
2022/03/11 10:19:04;;;;;;;;;;;;;;;19.19;22.92;102029.63;103969;1309;61946;-80
2022/03/11 10:21:34;;;;;;;;;;;;;;;19.22;22.89;102027.70;104364;1308;61969;-81
2022/03/11 10:23:59;;;;;;;;;;;;;;;19.24;22.88;102027.05;104393;1307;61189;-81
2022/03/11 10:26:31;;;;;;;;;;;;;;;19.26;22.82;102027.89;104369;1309;62200;-82
2022/03/11 10:28:57;;;;;;;;;;;;;;;19.27;22.80;102027.14;104548;1307;74331;-82
2022/03/11 10:31:33;;;;;;;;;;;;;;;19.29;22.79;102029.38;104296;1309;75564;-81
2022/03/11 10:34:14;;;;;;;;;;;;;;;19.27;22.76;102027.84;104303;1309;60273;-81
2022/03/11 10:36:49;;;;;;;;;;;;;;;19.24;22.92;102019.93;104467;1306;62064;-83
2022/03/11 10:39:27;;;;;;;;;;;;;;;19.20;22.77;102019.19;104296;1308;74320;-81
2022/03/11 10:41:54;;;;;;;;;;;;;;;19.17;22.76;102013.44;104284;1307;76771;-82
2022/03/11 10:44:40;;;;;;;;;;;;;;;19.14;22.72;102010.37;104485;1308;60169;-82
2022/03/11 10:47:34;;;;;;;;;;;;;;;19.13;22.56;102009.52;104145;1308;62223;-82
2022/03/11 10:50:03;;;;;;;;;;;;;;;19.13;22.33;102007.39;103652;1316;72722;-81
2022/03/11 10:52:33;;;;;;;;;;;;;;;18.99;22.16;102007.65;103382;1316;76235;-81
2022/03/11 10:55:00;;;;;;;;;;;;;;;18.84;22.34;102004.34;104428;1315;61239;-80
2022/03/11 10:57:35;;;;;;;;;;;;;;;18.71;22.14;102000.79;104334;1315;61402;-80
2022/03/11 11:00:19;;;;;;;;;;;;;;;18.64;22.22;101997.66;104358;1314;72673;-80
2022/03/11 11:02:45;;;;;;;;;;;;;;;18.64;22.30;101999.45;104421;1314;76185;-81
2022/03/11 11:05:11;;;;;;;;;;;;;;;18.66;22.21;101998.66;104492;1314;60597;-80
2022/03/11 11:07:36;;;;;;;;;;;;;;;18.69;22.15;101991.58;104423;1315;60456;-80
2022/03/11 11:10:05;;;;;;;;;;;;;;;18.73;22.08;101986.03;104261;1317;61462;-80
2022/03/11 11:12:33;;;;;;;;;;;;;;;18.79;22.15;101980.27;103918;1315;62120;-80
2022/03/11 11:14:58;;;;;;;;;;;;;;;18.83;22.12;101977.59;103896;1314;61292;-80
2022/03/11 11:17:25;;;;;;;;;;;;;;;18.87;22.04;101975.84;103912;1314;62236;-81
2022/03/11 11:19:50;;;;;;;;;;;;;;;18.89;21.89;101973.45;103792;1315;61952;-83
2022/03/11 11:22:16;;;;;;;;;;;;;;;18.92;21.84;101973.68;103743;1315;62131;-83
2022/03/11 11:24:44;;;;;;;;;;;;;;;18.93;21.77;101973.27;103791;1314;62125;-81
2022/03/11 11:27:10;;;;;;;;;;;;;;;18.94;21.74;101964.51;103784;1309;61976;-80
2022/03/11 11:29:36;;;;;;;;;;;;;;;18.93;21.81;101962.94;103815;1307;62154;-81
2022/03/11 11:32:06;;;;;;;;;;;;;;;18.93;21.73;101964.71;103510;1309;62120;-80
2022/03/11 11:34:34;;;;;;;;;;;;;;;18.96;21.81;101959.09;103753;1308;60254;-81
2022/03/11 11:37:00;;;;;;;;;;;;;;;19.00;21.78;101958.37;103868;1307;62231;-80
2022/03/11 11:39:59;;;;;;;;;;;;;;;19.04;21.80;101958.88;103770;1307;62136;-81
2022/03/11 11:42:28;;;;;;;;;;;;;;;19.07;21.58;101958.58;103509;1314;75530;-81
2022/03/11 11:44:53;;;;;;;;;;;;;;;18.97;21.41;101952.45;103655;1314;62020;-81
2022/03/11 11:47:22;;;;;;;;;;;;;;;18.92;21.54;101951.55;103126;1316;62222;-80
2022/03/11 11:49:50;;;;;;;;;;;;;;;18.90;21.41;101954.31;103155;1315;74039;-81
2022/03/11 11:52:35;;;;;;;;;;;;;;;18.66;21.25;101948.55;104628;1313;75691;-81
2022/03/11 11:55:27;;;;;;;;;;;;;;;18.52;21.08;101952.52;104086;1315;62050;-81
2022/03/11 11:57:53;;;;;;;;;;;;;;;18.50;21.27;101948.33;103135;1315;62375;-82
2022/03/11 12:00:30;;;;;;;;;;;;;;;18.53;21.39;101949.27;103120;1317;73135;-81
2022/03/11 12:02:59;;;;;;;;;;;;;;;18.54;21.51;101940.48;103614;1314;76961;-80
2022/03/11 12:05:43;;;;;;;;;;;;;;;18.52;21.42;101935.77;103504;1316;62538;-81
2022/03/11 12:08:10;;;;;;;;;;;;;;;18.50;21.41;101938.55;104549;1314;60437;-81
2022/03/11 12:10:48;;;;;;;;;;;;;;;18.48;21.36;101941.63;103432;1314;72880;-80
2022/03/11 12:13:14;;;;;;;;;;;;;;;18.48;21.38;101937.38;103425;1316;76063;-81
2022/03/11 12:15:40;;;;;;;;;;;;;;;18.51;21.42;101937.79;103988;1314;62128;-81
2022/03/11 12:18:26;;;;;;;;;;;;;;;18.54;21.58;101938.17;103839;1308;61232;-81
2022/03/11 12:20:52;;;;;;;;;;;;;;;18.59;21.49;101939.40;104368;1308;72877;-81
2022/03/11 12:23:18;;;;;;;;;;;;;;;18.63;21.63;101934.59;104367;1307;62059;-81
2022/03/11 12:25:54;;;;;;;;;;;;;;;18.69;21.66;101932.77;104375;1309;62089;-81
2022/03/11 12:28:33;;;;;;;;;;;;;;;18.74;21.72;101941.42;104449;1306;60763;-82
2022/03/11 12:31:01;;;;;;;;;;;;;;;18.79;21.70;101939.95;104343;1307;73875;-82
2022/03/11 12:33:33;;;;;;;;;;;;;;;18.80;21.73;101938.13;104358;1306;76753;-80
2022/03/11 12:35:59;;;;;;;;;;;;;;;18.81;21.87;101936.51;104318;1308;62007;-82
2022/03/11 12:38:39;;;;;;;;;;;;;;;;;;;;;
2022/03/11 12:41:11;;;;;;;;;;;;;;;18.87;21.87;101938.90;104697;1306;72683;-81
2022/03/11 12:43:40;;;;;;;;;;;;;;;18.89;22.11;101931.72;104313;1306;75542;-81
2022/03/11 12:46:06;;;;;;;;;;;;;;;18.90;22.15;101935.79;104139;1307;62084;-81
2022/03/11 12:48:43;;;;;;;;;;;;;;;18.88;22.21;101934.95;104132;1309;60548;-81
2022/03/11 12:51:19;;;;;;;;;;;;;;;18.85;22.18;101933.63;104925;1309;74058;-80
2022/03/11 12:53:49;;;;;;;;;;;;;;;18.80;22.09;101934.92;105055;1310;76349;-80
2022/03/11 12:56:14;;;;;;;;;;;;;;;18.79;22.27;101936.05;105175;1309;61102;-81
2022/03/11 12:58:40;;;;;;;;;;;;;;;18.79;22.32;101934.10;104980;1307;62140;-81
2022/03/11 13:01:07;;;;;;;;;;;;;;;18.78;22.33;101932.72;104387;1307;60174;-80
2022/03/11 13:03:36;;;;;;;;;;;;;;;18.76;22.35;101934.00;105212;1308;60078;-80
2022/03/11 13:06:06;;;;;;;;;;;;;;;18.79;22.23;101941.61;105163;1309;61385;-80
2022/03/11 13:08:31;;;;;;;;;;;;;;;18.80;22.24;101939.77;105331;1307;61584;-80
2022/03/11 13:10:56;;;;;;;;;;;;;;;18.80;22.20;101944.20;105329;1308;59961;-80
2022/03/11 13:13:22;;;;;;;;;;;;;;;18.80;22.24;101943.48;104376;1310;62072;-81
2022/03/11 13:15:51;;;;;;;;;;;;;;;18.80;22.13;101940.65;104317;1309;61981;-81
2022/03/11 13:18:22;;;;;;;;;;;;;;;18.78;22.12;101943.60;104321;1308;62200;-82
2022/03/11 13:21:09;;;;;;;;;;;;;;;18.75;22.05;101941.04;104319;1308;71481;-83
2022/03/11 13:23:38;;;;;;;;;;;;;;;18.72;22.10;101943.13;104255;1309;62037;-80
2022/03/11 13:26:23;;;;;;;;;;;;;;;18.71;21.99;101939.27;104448;1306;61970;-82
2022/03/11 13:29:09;;;;;;;;;;;;;;;18.68;22.10;101940.61;104364;1307;62080;-81
2022/03/11 13:31:37;;;;;;;;;;;;;;;18.66;21.94;101948.02;104401;1306;73944;-81
2022/03/11 13:34:08;;;;;;;;;;;;;;;18.64;21.83;101950.44;104139;1309;75824;-80
2022/03/11 13:36:43;;;;;;;;;;;;;;;18.60;21.74;101949.33;104437;1307;62058;-80
2022/03/11 13:39:13;;;;;;;;;;;;;;;18.59;21.77;101942.79;104333;1307;61977;-81